sensor_id;sensor_type;location;lat;lon;timestamp;pressure;altitude;pressure_sealevel;temperature;humidity
19286;BME280;9776;50.798;6.430;2023-05-19T00:00:46;101110.47;;;13.15;50.06
19286;BME280;9776;50.798;6.430;2023-05-19T00:03:14;101112.72;;;13.10;50.25
19286;BME280;9776;50.798;6.430;2023-05-19T00:05:41;101112.13;;;13.06;50.28
19286;BME280;9776;50.798;6.430;2023-05-19T00:08:11;101114.41;;;13.01;50.24
19286;BME280;9776;50.798;6.430;2023-05-19T00:10:43;101115.13;;;12.94;50.60
19286;BME280;9776;50.798;6.430;2023-05-19T00:13:10;101112.75;;;12.91;50.65
19286;BME280;9776;50.798;6.430;2023-05-19T00:15:37;101113.03;;;12.88;50.75
19286;BME280;9776;50.798;6.430;2023-05-19T00:18:04;101110.97;;;12.82;50.76
19286;BME280;9776;50.798;6.430;2023-05-19T00:20:33;101108.88;;;12.76;50.81
19286;BME280;9776;50.798;6.430;2023-05-19T00:22:59;101108.78;;;12.68;50.96
19286;BME280;9776;50.798;6.430;2023-05-19T00:25:26;101115.09;;;12.57;51.10
19286;BME280;9776;50.798;6.430;2023-05-19T00:27:54;101114.53;;;12.53;51.37
19286;BME280;9776;50.798;6.430;2023-05-19T00:30:22;101113.16;;;12.49;51.39
19286;BME280;9776;50.798;6.430;2023-05-19T00:32:49;101098.53;;;12.45;51.39
19286;BME280;9776;50.798;6.430;2023-05-19T00:35:16;101109.41;;;12.42;51.62
19286;BME280;9776;50.798;6.430;2023-05-19T00:37:43;101108.28;;;12.35;51.94
19286;BME280;9776;50.798;6.430;2023-05-19T00:40:10;101109.97;;;12.27;52.12
19286;BME280;9776;50.798;6.430;2023-05-19T00:42:37;101110.69;;;12.19;52.23
19286;BME280;9776;50.798;6.430;2023-05-19T00:45:06;101112.09;;;12.14;52.62
19286;BME280;9776;50.798;6.430;2023-05-19T00:47:33;101107.63;;;12.14;52.37
19286;BME280;9776;50.798;6.430;2023-05-19T00:50:00;101108.19;;;12.18;52.43
19286;BME280;9776;50.798;6.430;2023-05-19T00:52:27;101109.56;;;12.12;52.54
19286;BME280;9776;50.798;6.430;2023-05-19T00:54:54;101105.84;;;12.05;52.80
19286;BME280;9776;50.798;6.430;2023-05-19T00:57:21;101102.91;;;12.08;52.84
19286;BME280;9776;50.798;6.430;2023-05-19T00:59:48;101109.72;;;12.11;52.67
19286;BME280;9776;50.798;6.430;2023-05-19T01:02:16;101106.94;;;12.12;52.63
19286;BME280;9776;50.798;6.430;2023-05-19T01:04:43;101107.06;;;12.11;52.76
19286;BME280;9776;50.798;6.430;2023-05-19T01:07:11;101109.03;;;12.09;52.72
19286;BME280;9776;50.798;6.430;2023-05-19T01:09:38;101104.88;;;12.06;52.92
19286;BME280;9776;50.798;6.430;2023-05-19T01:12:06;101102.50;;;12.03;52.77
19286;BME280;9776;50.798;6.430;2023-05-19T01:14:33;101102.75;;;11.81;53.48
19286;BME280;9776;50.798;6.430;2023-05-19T01:17:03;101100.38;;;11.78;53.65
19286;BME280;9776;50.798;6.430;2023-05-19T01:19:51;101098.31;;;11.81;53.60
19286;BME280;9776;50.798;6.430;2023-05-19T01:22:40;101097.00;;;11.66;53.92
19286;BME280;9776;50.798;6.430;2023-05-19T01:25:36;101091.97;;;11.63;53.90
19286;BME280;9776;50.798;6.430;2023-05-19T01:28:43;101092.53;;;11.48;54.26
19286;BME280;9776;50.798;6.430;2023-05-19T01:31:20;101089.06;;;11.57;54.01
19286;BME280;9776;50.798;6.430;2023-05-19T01:33:51;101087.66;;;11.53;54.20
19286;BME280;9776;50.798;6.430;2023-05-19T01:36:19;101089.75;;;11.39;54.45
19286;BME280;9776;50.798;6.430;2023-05-19T01:38:50;101086.56;;;11.46;54.33
19286;BME280;9776;50.798;6.430;2023-05-19T01:41:18;101086.38;;;11.28;54.77
19286;BME280;9776;50.798;6.430;2023-05-19T01:43:46;101090.47;;;11.11;55.17
19286;BME280;9776;50.798;6.430;2023-05-19T01:46:14;101080.75;;;11.02;55.21
19286;BME280;9776;50.798;6.430;2023-05-19T01:48:43;101084.53;;;10.79;55.84
19286;BME280;9776;50.798;6.430;2023-05-19T01:51:10;101091.22;;;10.83;55.59
19286;BME280;9776;50.798;6.430;2023-05-19T01:53:37;101091.78;;;10.87;55.72
19286;BME280;9776;50.798;6.430;2023-05-19T01:56:04;101093.75;;;10.85;55.80
19286;BME280;9776;50.798;6.430;2023-05-19T01:58:36;101088.03;;;10.89;55.72
19286;BME280;9776;50.798;6.430;2023-05-19T02:01:10;101090.41;;;10.92;55.59
19286;BME280;9776;50.798;6.430;2023-05-19T02:04:04;101091.38;;;10.91;55.66
19286;BME280;9776;50.798;6.430;2023-05-19T02:06:40;101091.69;;;10.98;55.48
19286;BME280;9776;50.798;6.430;2023-05-19T02:09:12;101092.25;;;11.01;55.24
19286;BME280;9776;50.798;6.430;2023-05-19T02:11:45;101098.97;;;11.05;55.13
19286;BME280;9776;50.798;6.430;2023-05-19T02:14:18;101094.66;;;11.04;55.20
19286;BME280;9776;50.798;6.430;2023-05-19T02:16:47;101097.13;;;10.96;55.43
19286;BME280;9776;50.798;6.430;2023-05-19T02:19:22;101104.91;;;10.98;55.46
19286;BME280;9776;50.798;6.430;2023-05-19T02:21:50;101090.16;;;10.95;55.52
19286;BME280;9776;50.798;6.430;2023-05-19T02:24:17;101097.94;;;10.97;55.50
19286;BME280;9776;50.798;6.430;2023-05-19T02:26:44;101089.88;;;10.98;55.44
19286;BME280;9776;50.798;6.430;2023-05-19T02:29:11;101091.56;;;10.99;55.36
19286;BME280;9776;50.798;6.430;2023-05-19T02:31:37;101090.72;;;10.99;55.29
19286;BME280;9776;50.798;6.430;2023-05-19T02:34:04;101086.94;;;10.92;55.55
19286;BME280;9776;50.798;6.430;2023-05-19T02:36:34;101089.25;;;10.85;55.70
19286;BME280;9776;50.798;6.430;2023-05-19T02:39:02;101084.81;;;10.76;55.95
19286;BME280;9776;50.798;6.430;2023-05-19T02:41:29;101084.53;;;10.79;55.79
19286;BME280;9776;50.798;6.430;2023-05-19T02:43:56;101078.84;;;10.83;55.78
19286;BME280;9776;50.798;6.430;2023-05-19T02:46:23;101080.38;;;10.86;55.62
19286;BME280;9776;50.798;6.430;2023-05-19T02:48:50;101069.81;;;10.86;55.50
19286;BME280;9776;50.798;6.430;2023-05-19T02:51:16;101068.28;;;10.83;55.45
19286;BME280;9776;50.798;6.430;2023-05-19T02:53:45;101067.00;;;10.78;55.57
19286;BME280;9776;50.798;6.430;2023-05-19T02:56:11;101065.84;;;10.71;55.73
19286;BME280;9776;50.798;6.430;2023-05-19T02:58:38;101066.69;;;10.71;55.86
19286;BME280;9776;50.798;6.430;2023-05-19T03:01:07;101060.56;;;10.71;55.69
19286;BME280;9776;50.798;6.430;2023-05-19T03:03:34;101069.50;;;10.70;55.75
19286;BME280;9776;50.798;6.430;2023-05-19T03:06:00;101066.69;;;10.62;55.97
19286;BME280;9776;50.798;6.430;2023-05-19T03:08:27;101068.00;;;10.56;55.92
19286;BME280;9776;50.798;6.430;2023-05-19T03:10:55;101073.97;;;10.49;56.18
19286;BME280;9776;50.798;6.430;2023-05-19T03:13:22;101079.81;;;10.32;56.65
19286;BME280;9776;50.798;6.430;2023-05-19T03:15:48;101087.47;;;10.14;56.97
19286;BME280;9776;50.798;6.430;2023-05-19T03:18:15;101082.78;;;10.17;56.97
19286;BME280;9776;50.798;6.430;2023-05-19T03:20:42;101084.78;;;10.25;56.73
19286;BME280;9776;50.798;6.430;2023-05-19T03:23:09;101085.34;;;10.29;56.48
19286;BME280;9776;50.798;6.430;2023-05-19T03:25:36;101086.78;;;10.33;56.36
19286;BME280;9776;50.798;6.430;2023-05-19T03:28:04;101087.03;;;10.30;56.40
19286;BME280;9776;50.798;6.430;2023-05-19T03:30:31;101082.34;;;10.33;56.28
19286;BME280;9776;50.798;6.430;2023-05-19T03:32:57;101088.19;;;10.37;56.17
19286;BME280;9776;50.798;6.430;2023-05-19T03:35:27;101081.25;;;10.36;56.13
19286;BME280;9776;50.798;6.430;2023-05-19T03:37:54;101078.72;;;10.34;56.14
19286;BME280;9776;50.798;6.430;2023-05-19T03:40:21;101080.09;;;10.29;56.24
19286;BME280;9776;50.798;6.430;2023-05-19T03:42:48;101079.25;;;10.28;56.24
19286;BME280;9776;50.798;6.430;2023-05-19T03:45:16;101075.81;;;10.16;56.31
19286;BME280;9776;50.798;6.430;2023-05-19T03:47:42;101079.44;;;10.15;56.28
19286;BME280;9776;50.798;6.430;2023-05-19T03:50:10;101085.13;;;10.00;56.68
19286;BME280;9776;50.798;6.430;2023-05-19T03:52:38;101077.09;;;10.01;56.70
19286;BME280;9776;50.798;6.430;2023-05-19T03:55:05;101072.38;;;10.05;56.52
19286;BME280;9776;50.798;6.430;2023-05-19T03:57:32;101067.63;;;9.99;56.63
19286;BME280;9776;50.798;6.430;2023-05-19T03:59:59;101080.50;;;9.92;56.84
19286;BME280;9776;50.798;6.430;2023-05-19T04:02:27;101076.56;;;9.87;56.98
19286;BME280;9776;50.798;6.430;2023-05-19T04:04:54;101069.88;;;9.83;57.19
19286;BME280;9776;50.798;6.430;2023-05-19T04:07:20;101071.25;;;9.66;57.56
19286;BME280;9776;50.798;6.430;2023-05-19T04:09:48;101068.94;;;9.73;57.43
19286;BME280;9776;50.798;6.430;2023-05-19T04:12:15;101082.44;;;9.79;57.29
19286;BME280;9776;50.798;6.430;2023-05-19T04:14:41;101083.63;;;9.86;57.17
19286;BME280;9776;50.798;6.430;2023-05-19T04:17:08;101086.47;;;9.94;57.08
19286;BME280;9776;50.798;6.430;2023-05-19T04:19:36;101090.53;;;9.98;57.02
19286;BME280;9776;50.798;6.430;2023-05-19T04:22:03;101083.44;;;9.99;56.95
19286;BME280;9776;50.798;6.430;2023-05-19T04:24:30;101082.38;;;10.01;56.90
19286;BME280;9776;50.798;6.430;2023-05-19T04:26:57;101084.44;;;9.98;57.17
19286;BME280;9776;50.798;6.430;2023-05-19T04:29:26;101089.31;;;10.02;57.25
19286;BME280;9776;50.798;6.430;2023-05-19T04:31:53;101086.47;;;9.94;57.43
19286;BME280;9776;50.798;6.430;2023-05-19T04:34:21;101086.88;;;9.90;57.67
19286;BME280;9776;50.798;6.430;2023-05-19T04:36:49;101088.41;;;9.92;57.86
19286;BME280;9776;50.798;6.430;2023-05-19T04:39:16;101091.28;;;9.89;57.99
19286;BME280;9776;50.798;6.430;2023-05-19T04:41:43;101096.38;;;9.81;58.26
19286;BME280;9776;50.798;6.430;2023-05-19T04:44:09;101094.28;;;9.85;58.41
19286;BME280;9776;50.798;6.430;2023-05-19T04:46:38;101093.69;;;9.92;58.44
19286;BME280;9776;50.798;6.430;2023-05-19T04:49:04;101091.66;;;10.16;58.21
19286;BME280;9776;50.798;6.430;2023-05-19T04:51:32;101098.47;;;10.40;57.77
19286;BME280;9776;50.798;6.430;2023-05-19T04:54:01;101095.25;;;10.57;57.55
19286;BME280;9776;50.798;6.430;2023-05-19T04:56:28;101094.47;;;10.66;57.35
19286;BME280;9776;50.798;6.430;2023-05-19T04:58:55;101096.06;;;10.78;57.18
19286;BME280;9776;50.798;6.430;2023-05-19T05:01:21;101099.28;;;10.81;57.20
19286;BME280;9776;50.798;6.430;2023-05-19T05:03:50;101100.03;;;10.93;57.19
19286;BME280;9776;50.798;6.430;2023-05-19T05:06:19;101094.94;;;11.11;56.93
19286;BME280;9776;50.798;6.430;2023-05-19T05:08:46;101090.66;;;11.29;56.78
19286;BME280;9776;50.798;6.430;2023-05-19T05:11:14;101090.59;;;11.50;56.65
19286;BME280;9776;50.798;6.430;2023-05-19T05:13:42;101090.06;;;11.65;56.41
19286;BME280;9776;50.798;6.430;2023-05-19T05:16:10;101082.31;;;11.83;56.16
19286;BME280;9776;50.798;6.430;2023-05-19T05:18:38;101085.06;;;12.01;55.82
19286;BME280;9776;50.798;6.430;2023-05-19T05:21:06;101087.16;;;12.16;55.91
19286;BME280;9776;50.798;6.430;2023-05-19T05:23:33;101088.13;;;12.25;55.87
19286;BME280;9776;50.798;6.430;2023-05-19T05:26:04;101083.63;;;12.44;55.67
19286;BME280;9776;50.798;6.430;2023-05-19T05:28:36;101088.72;;;12.65;55.54
19286;BME280;9776;50.798;6.430;2023-05-19T05:31:03;101082.28;;;12.77;55.20
19286;BME280;9776;50.798;6.430;2023-05-19T05:33:30;101084.28;;;12.93;55.25
19286;BME280;9776;50.798;6.430;2023-05-19T05:35:57;101082.03;;;13.07;54.98
19286;BME280;9776;50.798;6.430;2023-05-19T05:38:24;101080.72;;;13.21;54.91
19286;BME280;9776;50.798;6.430;2023-05-19T05:40:51;101087.16;;;13.36;54.79
19286;BME280;9776;50.798;6.430;2023-05-19T05:43:17;101085.38;;;13.54;54.53
19286;BME280;9776;50.798;6.430;2023-05-19T05:45:45;101087.44;;;13.78;54.23
19286;BME280;9776;50.798;6.430;2023-05-19T05:48:13;101082.28;;;13.94;53.92
19286;BME280;9776;50.798;6.430;2023-05-19T05:50:42;101083.28;;;14.11;53.67
19286;BME280;9776;50.798;6.430;2023-05-19T05:53:16;101076.28;;;14.10;53.60
19286;BME280;9776;50.798;6.430;2023-05-19T05:55:44;101073.69;;;14.18;53.59
19286;BME280;9776;50.798;6.430;2023-05-19T05:58:11;101078.81;;;14.37;53.48
19286;BME280;9776;50.798;6.430;2023-05-19T06:00:39;101075.50;;;14.61;53.01
19286;BME280;9776;50.798;6.430;2023-05-19T06:03:09;101078.00;;;14.96;52.50
19286;BME280;9776;50.798;6.430;2023-05-19T06:05:36;101076.63;;;15.26;52.11
19286;BME280;9776;50.798;6.430;2023-05-19T06:08:03;101073.75;;;15.53;51.35
19286;BME280;9776;50.798;6.430;2023-05-19T06:10:30;101070.28;;;15.77;50.67
19286;BME280;9776;50.798;6.430;2023-05-19T06:12:57;101065.97;;;16.00;49.77
19286;BME280;9776;50.798;6.430;2023-05-19T06:15:24;101066.47;;;16.20;49.26
19286;BME280;9776;50.798;6.430;2023-05-19T06:17:51;101066.78;;;16.25;48.93
19286;BME280;9776;50.798;6.430;2023-05-19T06:20:20;101072.25;;;16.39;48.54
19286;BME280;9776;50.798;6.430;2023-05-19T06:22:46;101070.47;;;16.56;48.29
19286;BME280;9776;50.798;6.430;2023-05-19T06:25:13;101072.91;;;16.66;48.22
19286;BME280;9776;50.798;6.430;2023-05-19T06:27:41;101068.38;;;16.74;47.71
19286;BME280;9776;50.798;6.430;2023-05-19T06:30:08;101067.06;;;16.78;47.21
19286;BME280;9776;50.798;6.430;2023-05-19T06:32:35;101067.50;;;16.90;46.70
19286;BME280;9776;50.798;6.430;2023-05-19T06:35:02;101064.72;;;17.22;46.09
19286;BME280;9776;50.798;6.430;2023-05-19T06:37:30;101071.31;;;17.65;45.07
19286;BME280;9776;50.798;6.430;2023-05-19T06:39:57;101076.19;;;17.84;44.71
19286;BME280;9776;50.798;6.430;2023-05-19T06:42:23;101070.75;;;18.00;44.67
19286;BME280;9776;50.798;6.430;2023-05-19T06:44:51;101068.78;;;18.32;44.08
19286;BME280;9776;50.798;6.430;2023-05-19T06:47:18;101066.63;;;18.64;43.28
19286;BME280;9776;50.798;6.430;2023-05-19T06:49:45;101082.13;;;18.98;42.55
19286;BME280;9776;50.798;6.430;2023-05-19T06:52:15;101075.53;;;19.30;41.90
19286;BME280;9776;50.798;6.430;2023-05-19T06:54:43;101074.84;;;19.57;41.32
19286;BME280;9776;50.798;6.430;2023-05-19T06:57:10;101078.22;;;19.66;40.83
19286;BME280;9776;50.798;6.430;2023-05-19T06:59:37;101073.16;;;19.71;40.92
19286;BME280;9776;50.798;6.430;2023-05-19T07:02:05;101072.50;;;19.90;40.19
19286;BME280;9776;50.798;6.430;2023-05-19T07:04:32;101065.09;;;20.13;39.67
19286;BME280;9776;50.798;6.430;2023-05-19T07:06:59;101072.59;;;20.46;39.03
19286;BME280;9776;50.798;6.430;2023-05-19T07:09:26;101074.91;;;20.83;38.02
19286;BME280;9776;50.798;6.430;2023-05-19T07:11:54;101068.72;;;21.23;36.63
19286;BME280;9776;50.798;6.430;2023-05-19T07:14:21;101074.59;;;21.46;35.99
19286;BME280;9776;50.798;6.430;2023-05-19T07:16:48;101072.38;;;21.70;35.22
19286;BME280;9776;50.798;6.430;2023-05-19T07:19:15;101071.13;;;21.72;34.98
19286;BME280;9776;50.798;6.430;2023-05-19T07:21:43;101067.00;;;21.83;34.60
19286;BME280;9776;50.798;6.430;2023-05-19T07:24:10;101070.72;;;21.82;34.59
19286;BME280;9776;50.798;6.430;2023-05-19T07:26:37;101064.16;;;22.17;33.91
19286;BME280;9776;50.798;6.430;2023-05-19T07:29:05;101072.03;;;22.65;33.18
19286;BME280;9776;50.798;6.430;2023-05-19T07:31:32;101064.03;;;23.02;32.71
19286;BME280;9776;50.798;6.430;2023-05-19T07:33:59;101068.84;;;23.45;32.32
19286;BME280;9776;50.798;6.430;2023-05-19T07:36:25;101066.59;;;23.73;31.57
19286;BME280;9776;50.798;6.430;2023-05-19T07:38:52;101065.09;;;23.84;31.44
19286;BME280;9776;50.798;6.430;2023-05-19T07:41:19;101069.78;;;23.95;31.28
19286;BME280;9776;50.798;6.430;2023-05-19T07:43:47;101064.22;;;24.21;30.95
19286;BME280;9776;50.798;6.430;2023-05-19T07:46:15;101056.78;;;24.59;30.50
19286;BME280;9776;50.798;6.430;2023-05-19T07:48:42;101058.47;;;24.97;30.05
19286;BME280;9776;50.798;6.430;2023-05-19T07:51:10;101049.44;;;25.21;29.54
19286;BME280;9776;50.798;6.430;2023-05-19T07:53:37;101054.06;;;25.50;29.25
19286;BME280;9776;50.798;6.430;2023-05-19T07:56:04;101052.75;;;25.82;28.84
19286;BME280;9776;50.798;6.430;2023-05-19T07:58:31;101054.13;;;26.15;28.34
19286;BME280;9776;50.798;6.430;2023-05-19T08:00:58;101050.84;;;26.36;28.06
19286;BME280;9776;50.798;6.430;2023-05-19T08:03:26;101049.44;;;26.57;27.53
19286;BME280;9776;50.798;6.430;2023-05-19T08:05:53;101041.19;;;26.52;27.76
19286;BME280;9776;50.798;6.430;2023-05-19T08:08:20;101045.53;;;26.64;27.42
19286;BME280;9776;50.798;6.430;2023-05-19T08:10:46;101048.16;;;27.11;27.37
19286;BME280;9776;50.798;6.430;2023-05-19T08:13:13;101049.16;;;27.33;26.93
19286;BME280;9776;50.798;6.430;2023-05-19T08:15:40;101053.78;;;27.60;26.24
19286;BME280;9776;50.798;6.430;2023-05-19T08:18:06;101054.22;;;28.02;26.11
19286;BME280;9776;50.798;6.430;2023-05-19T08:20:35;101048.06;;;28.40;25.53
19286;BME280;9776;50.798;6.430;2023-05-19T08:23:02;101046.56;;;28.66;25.05
19286;BME280;9776;50.798;6.430;2023-05-19T08:25:29;101035.31;;;29.01;24.73
19286;BME280;9776;50.798;6.430;2023-05-19T08:27:56;101043.25;;;29.51;24.27
19286;BME280;9776;50.798;6.430;2023-05-19T08:30:23;101040.97;;;29.96;23.61
19286;BME280;9776;50.798;6.430;2023-05-19T08:32:50;101037.69;;;29.94;23.42
19286;BME280;9776;50.798;6.430;2023-05-19T08:35:17;101034.44;;;30.34;23.04
19286;BME280;9776;50.798;6.430;2023-05-19T08:37:45;101033.84;;;30.69;22.37
19286;BME280;9776;50.798;6.430;2023-05-19T08:40:15;101038.13;;;31.02;22.13
19286;BME280;9776;50.798;6.430;2023-05-19T08:42:43;101027.81;;;31.24;21.90
19286;BME280;9776;50.798;6.430;2023-05-19T08:45:10;101028.19;;;31.48;21.72
19286;BME280;9776;50.798;6.430;2023-05-19T08:47:38;101030.09;;;31.92;21.31
19286;BME280;9776;50.798;6.430;2023-05-19T08:50:07;101021.06;;;32.42;20.81
19286;BME280;9776;50.798;6.430;2023-05-19T08:52:41;101019.00;;;32.88;20.29
19286;BME280;9776;50.798;6.430;2023-05-19T08:55:24;101018.00;;;33.33;19.89
19286;BME280;9776;50.798;6.430;2023-05-19T08:57:55;101013.41;;;33.67;19.58
19286;BME280;9776;50.798;6.430;2023-05-19T09:00:22;101014.81;;;33.94;19.41
19286;BME280;9776;50.798;6.430;2023-05-19T09:02:49;101012.38;;;34.21;18.93
19286;BME280;9776;50.798;6.430;2023-05-19T09:05:18;101006.41;;;34.43;18.60
19286;BME280;9776;50.798;6.430;2023-05-19T09:07:45;101006.44;;;34.85;18.30
19286;BME280;9776;50.798;6.430;2023-05-19T09:10:12;101009.31;;;35.36;17.66
19286;BME280;9776;50.798;6.430;2023-05-19T09:12:43;101009.97;;;35.65;17.25
19286;BME280;9776;50.798;6.430;2023-05-19T09:15:12;100998.16;;;36.16;17.21
19286;BME280;9776;50.798;6.430;2023-05-19T09:17:42;100995.94;;;36.45;17.01
19286;BME280;9776;50.798;6.430;2023-05-19T09:20:09;100997.44;;;36.37;16.81
19286;BME280;9776;50.798;6.430;2023-05-19T09:22:43;100994.16;;;37.04;16.47
19286;BME280;9776;50.798;6.430;2023-05-19T09:25:17;100993.44;;;37.70;15.89
19286;BME280;9776;50.798;6.430;2023-05-19T09:27:46;100989.59;;;38.32;15.01
19286;BME280;9776;50.798;6.430;2023-05-19T09:30:14;100979.66;;;38.71;14.74
19286;BME280;9776;50.798;6.430;2023-05-19T09:32:42;100975.28;;;38.70;14.59
19286;BME280;9776;50.798;6.430;2023-05-19T09:35:10;100969.66;;;39.00;13.97
19286;BME280;9776;50.798;6.430;2023-05-19T09:37:38;100969.53;;;39.31;13.75
19286;BME280;9776;50.798;6.430;2023-05-19T09:40:07;100969.66;;;39.78;13.31
19286;BME280;9776;50.798;6.430;2023-05-19T09:42:36;100974.63;;;40.10;13.10
19286;BME280;9776;50.798;6.430;2023-05-19T09:45:06;100962.75;;;40.39;13.12
19286;BME280;9776;50.798;6.430;2023-05-19T09:47:34;100958.00;;;40.77;12.97
19286;BME280;9776;50.798;6.430;2023-05-19T09:50:04;100958.81;;;41.19;12.76
19286;BME280;9776;50.798;6.430;2023-05-19T09:52:34;100955.59;;;41.17;12.75
19286;BME280;9776;50.798;6.430;2023-05-19T09:55:01;100958.84;;;41.40;12.36
19286;BME280;9776;50.798;6.430;2023-05-19T09:57:32;100949.28;;;41.82;12.07
19286;BME280;9776;50.798;6.430;2023-05-19T10:00:02;100949.44;;;42.10;11.89
19286;BME280;9776;50.798;6.430;2023-05-19T10:02:40;100952.75;;;41.25;12.49
19286;BME280;9776;50.798;6.430;2023-05-19T10:05:10;100936.25;;;40.88;12.40
19286;BME280;9776;50.798;6.430;2023-05-19T10:07:39;100935.44;;;40.87;12.40
19286;BME280;9776;50.798;6.430;2023-05-19T10:10:10;100940.97;;;41.28;12.66
19286;BME280;9776;50.798;6.430;2023-05-19T10:12:38;100938.69;;;41.96;12.06
19286;BME280;9776;50.798;6.430;2023-05-19T10:15:08;100938.31;;;41.85;12.25
19286;BME280;9776;50.798;6.430;2023-05-19T10:17:38;100942.50;;;42.40;11.72
19286;BME280;9776;50.798;6.430;2023-05-19T10:20:07;100939.44;;;43.06;11.15
19286;BME280;9776;50.798;6.430;2023-05-19T10:22:35;100938.41;;;43.54;11.13
19286;BME280;9776;50.798;6.430;2023-05-19T10:25:02;100938.81;;;43.99;10.83
19286;BME280;9776;50.798;6.430;2023-05-19T10:27:30;100936.31;;;43.78;11.09
19286;BME280;9776;50.798;6.430;2023-05-19T10:30:01;100930.75;;;43.78;10.95
19286;BME280;9776;50.798;6.430;2023-05-19T10:32:30;100916.91;;;43.66;10.49
19286;BME280;9776;50.798;6.430;2023-05-19T10:35:35;100920.94;;;43.69;10.57
19286;BME280;9776;50.798;6.430;2023-05-19T10:38:14;100922.78;;;43.92;10.37
19286;BME280;9776;50.798;6.430;2023-05-19T10:40:50;100923.56;;;44.09;10.04
19286;BME280;9776;50.798;6.430;2023-05-19T10:43:24;100912.19;;;43.39;10.28
19286;BME280;9776;50.798;6.430;2023-05-19T10:45:55;100917.31;;;42.45;10.64
19286;BME280;9776;50.798;6.430;2023-05-19T10:48:23;100913.97;;;42.91;10.24
19286;BME280;9776;50.798;6.430;2023-05-19T10:50:53;100911.31;;;43.50;9.95
19286;BME280;9776;50.798;6.430;2023-05-19T10:53:29;100916.13;;;43.97;9.95
19286;BME280;9776;50.798;6.430;2023-05-19T10:55:56;100916.59;;;44.49;9.50
19286;BME280;9776;50.798;6.430;2023-05-19T10:58:37;100909.19;;;44.73;9.43
19286;BME280;9776;50.798;6.430;2023-05-19T11:01:07;100902.50;;;45.35;9.19
19286;BME280;9776;50.798;6.430;2023-05-19T11:03:45;100906.38;;;46.17;8.73
19286;BME280;9776;50.798;6.430;2023-05-19T11:06:24;100907.69;;;46.80;8.32
19286;BME280;9776;50.798;6.430;2023-05-19T11:08:53;100901.84;;;45.41;9.00
19286;BME280;9776;50.798;6.430;2023-05-19T11:11:20;100899.50;;;44.86;8.89
19286;BME280;9776;50.798;6.430;2023-05-19T11:13:49;100895.34;;;45.34;8.95
19286;BME280;9776;50.798;6.430;2023-05-19T11:16:25;100898.19;;;45.18;8.83
19286;BME280;9776;50.798;6.430;2023-05-19T11:18:53;100892.63;;;45.83;8.84
19286;BME280;9776;50.798;6.430;2023-05-19T11:21:21;100893.75;;;46.83;8.46
19286;BME280;9776;50.798;6.430;2023-05-19T11:23:50;100885.69;;;47.11;8.54
19286;BME280;9776;50.798;6.430;2023-05-19T11:26:38;100881.19;;;46.14;8.66
19286;BME280;9776;50.798;6.430;2023-05-19T11:29:06;100883.13;;;46.66;8.66
19286;BME280;9776;50.798;6.430;2023-05-19T11:31:34;100878.94;;;45.51;8.95
19286;BME280;9776;50.798;6.430;2023-05-19T11:34:02;100871.84;;;45.57;8.92
19286;BME280;9776;50.798;6.430;2023-05-19T11:36:35;100883.66;;;46.45;8.68
19286;BME280;9776;50.798;6.430;2023-05-19T11:39:04;100883.47;;;46.91;8.26
19286;BME280;9776;50.798;6.430;2023-05-19T11:41:31;100879.06;;;47.23;8.48
19286;BME280;9776;50.798;6.430;2023-05-19T11:43:58;100880.38;;;47.80;8.26
19286;BME280;9776;50.798;6.430;2023-05-19T11:46:25;100878.81;;;48.33;7.80
19286;BME280;9776;50.798;6.430;2023-05-19T11:48:52;100873.59;;;48.28;7.84
19286;BME280;9776;50.798;6.430;2023-05-19T11:51:20;100869.28;;;47.87;8.04
19286;BME280;9776;50.798;6.430;2023-05-19T11:53:49;100867.44;;;48.09;8.04
19286;BME280;9776;50.798;6.430;2023-05-19T11:56:18;100861.44;;;48.10;7.68
19286;BME280;9776;50.798;6.430;2023-05-19T11:58:45;100868.88;;;47.85;7.96
19286;BME280;9776;50.798;6.430;2023-05-19T12:01:12;100858.84;;;47.84;8.00
19286;BME280;9776;50.798;6.430;2023-05-19T12:03:39;100855.84;;;48.10;8.00
19286;BME280;9776;50.798;6.430;2023-05-19T12:06:06;100843.63;;;48.40;7.74
19286;BME280;9776;50.798;6.430;2023-05-19T12:08:34;100840.94;;;48.61;7.62
19286;BME280;9776;50.798;6.430;2023-05-19T12:11:03;100836.84;;;48.44;7.48
19286;BME280;9776;50.798;6.430;2023-05-19T12:13:30;100830.47;;;46.68;8.34
19286;BME280;9776;50.798;6.430;2023-05-19T12:15:58;100840.44;;;44.07;9.59
19286;BME280;9776;50.798;6.430;2023-05-19T12:18:28;100837.19;;;41.83;10.81
19286;BME280;9776;50.798;6.430;2023-05-19T12:20:55;100821.66;;;40.80;11.47
19286;BME280;9776;50.798;6.430;2023-05-19T12:23:22;100834.72;;;39.07;12.35
19286;BME280;9776;50.798;6.430;2023-05-19T12:25:50;100828.94;;;38.10;12.95
19286;BME280;9776;50.798;6.430;2023-05-19T12:28:18;100817.72;;;37.97;12.54
19286;BME280;9776;50.798;6.430;2023-05-19T12:30:47;100823.31;;;37.44;13.10
19286;BME280;9776;50.798;6.430;2023-05-19T12:33:16;100820.59;;;36.64;13.70
19286;BME280;9776;50.798;6.430;2023-05-19T12:35:44;100824.25;;;35.69;14.29
19286;BME280;9776;50.798;6.430;2023-05-19T12:38:13;100822.16;;;34.64;14.87
19286;BME280;9776;50.798;6.430;2023-05-19T12:40:40;100817.00;;;33.97;15.37
19286;BME280;9776;50.798;6.430;2023-05-19T12:43:07;100810.78;;;33.67;15.93
19286;BME280;9776;50.798;6.430;2023-05-19T12:45:35;100807.03;;;33.58;16.11
19286;BME280;9776;50.798;6.430;2023-05-19T12:48:03;100815.22;;;33.30;16.42
19286;BME280;9776;50.798;6.430;2023-05-19T12:50:30;100810.34;;;32.88;16.49
19286;BME280;9776;50.798;6.430;2023-05-19T12:52:58;100811.66;;;32.56;16.85
19286;BME280;9776;50.798;6.430;2023-05-19T12:55:24;100801.50;;;32.13;16.81
19286;BME280;9776;50.798;6.430;2023-05-19T12:57:51;100808.69;;;31.84;17.14
19286;BME280;9776;50.798;6.430;2023-05-19T13:00:22;100801.09;;;31.61;17.63
19286;BME280;9776;50.798;6.430;2023-05-19T13:02:58;100806.63;;;31.05;18.13
19286;BME280;9776;50.798;6.430;2023-05-19T13:05:26;100809.31;;;30.90;18.27
19286;BME280;9776;50.798;6.430;2023-05-19T13:07:54;100814.75;;;30.65;18.46
19286;BME280;9776;50.798;6.430;2023-05-19T13:10:21;100811.16;;;30.54;18.14